MUGMMKJP

Guest
Details From MUGM - Guantanamo Bay Ns
To MKJP - Norman Manley Intl
Flight Number -
Tags generated
Created
Modified
Stats Distance 149 nm / 275 km
Max Altitude 14,600 ft / 4,450 m
Waypoints 3
Social Downloads 1
Likes 0
Share VATSIM

Download

Looking for another format? Having issues loading an existing format? Contact us
Advertisement - Login to hide

Notes

Basic altitude profile: - Ascent Rate: 2500ft/min - Ascent Speed: 250kts - Cruise Altitude: 25000ft - Cruise Speed: 420kts - Descent Rate: 1500ft/min - Descent Speed: 250kts Options: - Use NATs: no - Use PACOTS: yes - Use low airways: yes - Use high airways: yes

Route

MUGM ERICC MKJP

ID Type Via Altitude Latitude Longitude Leg Dist Tot Dist Heading (true) Name
O MUGM APT - 0 ft / 0 m 19.90646˚ -75.20706˚ - 0 nm - Guantanamo Bay Ns
ERICC FIX - 14,600 ft / 4,450 m 18.85322˚ -76.08402˚ 80 nm 80 nm 218° / 218° -
O MKJP APT - 0 ft / 0 m 17.93567˚ -76.78756˚ 68 nm 148 nm 216° / 216° Norman Manley Intl

Altitude Profile

Advertisement - Login to hide

MUGM

Details ICAO MUGM
Name Guantanamo Bay Ns
Region Cuba
Timezone Unknown (UTC+0.0)
Stats Elevation 56 ft / 17 m (AMSL)
Location 19.906458° -75.207055°
Runways 1
Magnetic Variation 8.753° W

METAR

MUGM 140956Z 33010KT 9999 FEW030 OVC050 22/20 A2998 RMK SLP152 T02220200

Decode

TAF

TAF MUGM 1407/1507 01011KT 9999 SCT025 BKN045 BKN060 QNH2998INS BECMG 1416/1418 08011KT 9999 VCSH FEW030 SCT060 BKN250 QNH2995INS FM142200 03008KT 9999 VCSH FEW025 BKN060 BKN250 QNH2995INS FM150300 33006KT 9999 FEW030 FEW150 QNH3000INS T21/1411Z T26/1418Z FN00191

Decode

Departure Runways

ID Width Length Bearing (true) Bearing (mag) Surface Threshold Offset Overrun Length
10 200 ft / 61 m 7,988 ft / 2,435 m 91.09° 99.84° Asphalt 100 ft / 30 m 150 ft / 46 m
28 200 ft / 61 m 7,988 ft / 2,435 m 271.10° 279.85° Asphalt 100 ft / 30 m 150 ft / 46 m

MKJP

Details ICAO MKJP (KIN)
Name Norman Manley Intl
Region Jamaica
Timezone Unknown (UTC+0.0)
Stats Elevation 10 ft / 3 m (AMSL)
Location 17.935665° -76.787560°
Runways 1
Magnetic Variation 7.541° W

METAR

MKJP 141000Z 36009KT 9999 FEW022 BKN036 25/23 Q1013

Decode

TAF

MKJP 140515Z 1406/1506 36009KT 9999 SCT020 SCT030 PROB30 TEMPO 1408/1412 SHRA BKN016 BKN030 BECMG 1414/1416 15012KT PRB40 TEMPO 1419/1421 SHRA SCT018 FEW020CB BKN030 BECMG 1500/1502 35008KT

Decode

Destination Runways

ID Width Length Bearing (true) Bearing (mag) Surface Threshold Offset Overrun Length
12 150 ft / 46 m 8,912 ft / 2,717 m 112.09° 119.63° Asphalt 0 ft / 0 m 0 ft / 0 m
30 150 ft / 46 m 8,912 ft / 2,717 m 292.10° 299.64° Asphalt 0 ft / 0 m 0 ft / 0 m

Approach Navaids

Runway Type Ident Frequency Range Bearing (true) Bearing (mag) Slope Elevation
12 Localiser IMLY 109.10 MHz 18 nm / 33 km 115.09° 122.63° - 10 ft / 3 m (AMSL)
12 Glidescope IMLY 109.10 MHz 10 nm / 19 km 115.09° 122.63° 3.00° 8 ft / 2 m (AMSL)

Popular Alternatives